sensor_id;sensor_type;location;lat;lon;timestamp;temperature;humidity
61641;HTU21D;62201;49.966;8.342;2023-07-02T00:01:07;17.74;105.14
61641;HTU21D;62201;49.966;8.342;2023-07-02T00:03:32;17.75;105.63
61641;HTU21D;62201;49.966;8.342;2023-07-02T00:05:57;17.76;105.31
61641;HTU21D;62201;49.966;8.342;2023-07-02T00:08:23;17.74;105.28
61641;HTU21D;62201;49.966;8.342;2023-07-02T00:10:48;17.73;105.48
61641;HTU21D;62201;49.966;8.342;2023-07-02T00:13:14;17.66;105.93
61641;HTU21D;62201;49.966;8.342;2023-07-02T00:15:40;17.59;106.73
61641;HTU21D;62201;49.966;8.342;2023-07-02T00:18:05;17.50;107.08
61641;HTU21D;62201;49.966;8.342;2023-07-02T00:20:31;17.46;107.51
61641;HTU21D;62201;49.966;8.342;2023-07-02T00:23:00;17.40;107.66
61641;HTU21D;62201;49.966;8.342;2023-07-02T00:25:25;17.35;108.20
61641;HTU21D;62201;49.966;8.342;2023-07-02T00:27:51;17.29;108.96
61641;HTU21D;62201;49.966;8.342;2023-07-02T00:30:16;17.21;108.91
61641;HTU21D;62201;49.966;8.342;2023-07-02T00:32:41;17.19;109.24
61641;HTU21D;62201;49.966;8.342;2023-07-02T00:35:07;17.16;109.34
61641;HTU21D;62201;49.966;8.342;2023-07-02T00:37:32;17.10;110.10
61641;HTU21D;62201;49.966;8.342;2023-07-02T00:39:57;17.07;109.59
61641;HTU21D;62201;49.966;8.342;2023-07-02T00:42:23;17.09;108.33
61641;HTU21D;62201;49.966;8.342;2023-07-02T00:44:48;17.07;108.04
61641;HTU21D;62201;49.966;8.342;2023-07-02T00:47:14;17.08;107.46
61641;HTU21D;62201;49.966;8.342;2023-07-02T00:49:40;17.07;107.17
61641;HTU21D;62201;49.966;8.342;2023-07-02T00:52:06;17.09;106.03
61641;HTU21D;62201;49.966;8.342;2023-07-02T00:54:31;17.13;105.15
61641;HTU21D;62201;49.966;8.342;2023-07-02T00:56:57;17.14;104.93
61641;HTU21D;62201;49.966;8.342;2023-07-02T00:59:28;17.08;105.26
61641;HTU21D;62201;49.966;8.342;2023-07-02T01:01:55;17.05;105.87
61641;HTU21D;62201;49.966;8.342;2023-07-02T01:04:22;16.96;107.01
61641;HTU21D;62201;49.966;8.342;2023-07-02T01:06:53;16.79;108.17
61641;HTU21D;62201;49.966;8.342;2023-07-02T01:09:23;16.63;109.08
61641;HTU21D;62201;49.966;8.342;2023-07-02T01:12:22;16.50;110.63
61641;HTU21D;62201;49.966;8.342;2023-07-02T01:14:51;16.47;111.24
61641;HTU21D;62201;49.966;8.342;2023-07-02T01:17:18;16.42;110.91
61641;HTU21D;62201;49.966;8.342;2023-07-02T01:22:20;16.21;112.57
61641;HTU21D;62201;49.966;8.342;2023-07-02T01:24:47;16.12;113.98
61641;HTU21D;62201;49.966;8.342;2023-07-02T01:27:14;16.03;114.33
61641;HTU21D;62201;49.966;8.342;2023-07-02T01:29:40;15.91;114.40
61641;HTU21D;62201;49.966;8.342;2023-07-02T01:32:06;15.83;116.47
61641;HTU21D;62201;49.966;8.342;2023-07-02T01:34:32;15.73;116.01
61641;HTU21D;62201;49.966;8.342;2023-07-02T01:36:57;15.65;116.72
61641;HTU21D;62201;49.966;8.342;2023-07-02T01:39:23;15.58;117.21
61641;HTU21D;62201;49.966;8.342;2023-07-02T01:41:50;15.52;117.91
61641;HTU21D;62201;49.966;8.342;2023-07-02T01:44:16;15.45;117.87
61641;HTU21D;62201;49.966;8.342;2023-07-02T01:46:42;15.36;117.95
61641;HTU21D;62201;49.966;8.342;2023-07-02T01:49:07;15.29;118.81
61641;HTU21D;62201;49.966;8.342;2023-07-02T01:51:33;15.19;118.59
61641;HTU21D;62201;49.966;8.342;2023-07-02T01:53:59;15.16;118.97
61641;HTU21D;62201;49.966;8.342;2023-07-02T01:56:25;15.08;118.99
61641;HTU21D;62201;49.966;8.342;2023-07-02T01:58:52;15.00;118.99
61641;HTU21D;62201;49.966;8.342;2023-07-02T02:01:18;14.97;118.84
61641;HTU21D;62201;49.966;8.342;2023-07-02T02:03:43;14.98;118.46
61641;HTU21D;62201;49.966;8.342;2023-07-02T02:06:08;14.95;118.25
61641;HTU21D;62201;49.966;8.342;2023-07-02T02:08:34;14.91;118.16
61641;HTU21D;62201;49.966;8.342;2023-07-02T02:10:59;14.88;117.66
61641;HTU21D;62201;49.966;8.342;2023-07-02T02:13:25;14.91;117.22
61641;HTU21D;62201;49.966;8.342;2023-07-02T02:15:51;14.89;117.23
61641;HTU21D;62201;49.966;8.342;2023-07-02T02:18:16;14.95;115.37
61641;HTU21D;62201;49.966;8.342;2023-07-02T02:20:42;15.03;113.69
61641;HTU21D;62201;49.966;8.342;2023-07-02T02:23:07;15.02;114.01
61641;HTU21D;62201;49.966;8.342;2023-07-02T02:25:33;15.01;114.16
61641;HTU21D;62201;49.966;8.342;2023-07-02T02:27:58;14.99;112.91
61641;HTU21D;62201;49.966;8.342;2023-07-02T02:30:23;15.01;113.39
61641;HTU21D;62201;49.966;8.342;2023-07-02T02:32:49;14.92;114.37
61641;HTU21D;62201;49.966;8.342;2023-07-02T02:35:14;14.88;114.58
61641;HTU21D;62201;49.966;8.342;2023-07-02T02:37:40;14.78;114.99
61641;HTU21D;62201;49.966;8.342;2023-07-02T02:40:07;14.66;116.12
61641;HTU21D;62201;49.966;8.342;2023-07-02T02:42:34;14.54;116.88
61641;HTU21D;62201;49.966;8.342;2023-07-02T02:45:00;14.44;117.21
61641;HTU21D;62201;49.966;8.342;2023-07-02T02:47:25;14.35;117.77
61641;HTU21D;62201;49.966;8.342;2023-07-02T02:49:51;14.32;118.47
61641;HTU21D;62201;49.966;8.342;2023-07-02T02:52:16;14.30;118.05
61641;HTU21D;62201;49.966;8.342;2023-07-02T02:54:42;14.33;118.21
61641;HTU21D;62201;49.966;8.342;2023-07-02T02:57:07;14.30;117.32
61641;HTU21D;62201;49.966;8.342;2023-07-02T02:59:32;14.33;117.34
61641;HTU21D;62201;49.966;8.342;2023-07-02T03:01:57;14.30;116.96
61641;HTU21D;62201;49.966;8.342;2023-07-02T03:04:23;14.28;116.55
61641;HTU21D;62201;49.966;8.342;2023-07-02T03:06:50;14.27;116.30
61641;HTU21D;62201;49.966;8.342;2023-07-02T03:09:16;14.29;116.12
61641;HTU21D;62201;49.966;8.342;2023-07-02T03:11:42;14.37;114.77
61641;HTU21D;62201;49.966;8.342;2023-07-02T03:14:07;14.42;113.86
61641;HTU21D;62201;49.966;8.342;2023-07-02T03:16:33;14.48;113.12
61641;HTU21D;62201;49.966;8.342;2023-07-02T03:18:58;14.53;112.11
61641;HTU21D;62201;49.966;8.342;2023-07-02T03:21:24;14.57;111.81
61641;HTU21D;62201;49.966;8.342;2023-07-02T03:23:49;14.59;111.90
61641;HTU21D;62201;49.966;8.342;2023-07-02T03:26:15;14.64;111.73
61641;HTU21D;62201;49.966;8.342;2023-07-02T03:28:40;14.68;111.26
61641;HTU21D;62201;49.966;8.342;2023-07-02T03:31:05;14.75;110.87
61641;HTU21D;62201;49.966;8.342;2023-07-02T03:33:32;14.82;110.33
61641;HTU21D;62201;49.966;8.342;2023-07-02T03:35:57;14.88;109.68
61641;HTU21D;62201;49.966;8.342;2023-07-02T03:38:23;14.95;109.52
61641;HTU21D;62201;49.966;8.342;2023-07-02T03:40:48;15.01;108.68
61641;HTU21D;62201;49.966;8.342;2023-07-02T03:43:13;15.07;108.03
61641;HTU21D;62201;49.966;8.342;2023-07-02T03:45:39;15.08;106.35
61641;HTU21D;62201;49.966;8.342;2023-07-02T03:48:04;15.15;106.43
61641;HTU21D;62201;49.966;8.342;2023-07-02T03:50:30;15.22;105.98
61641;HTU21D;62201;49.966;8.342;2023-07-02T03:52:55;15.28;105.39
61641;HTU21D;62201;49.966;8.342;2023-07-02T03:55:20;15.32;105.03
61641;HTU21D;62201;49.966;8.342;2023-07-02T03:57:46;15.39;104.29
61641;HTU21D;62201;49.966;8.342;2023-07-02T04:00:11;15.43;103.13
61641;HTU21D;62201;49.966;8.342;2023-07-02T04:02:37;15.45;103.31
61641;HTU21D;62201;49.966;8.342;2023-07-02T04:05:02;15.45;103.01
61641;HTU21D;62201;49.966;8.342;2023-07-02T04:07:28;15.45;100.80
61641;HTU21D;62201;49.966;8.342;2023-07-02T04:09:53;15.45;101.71
61641;HTU21D;62201;49.966;8.342;2023-07-02T04:12:19;15.51;101.59
61641;HTU21D;62201;49.966;8.342;2023-07-02T04:14:44;15.47;101.40
61641;HTU21D;62201;49.966;8.342;2023-07-02T04:17:09;15.45;101.42
61641;HTU21D;62201;49.966;8.342;2023-07-02T04:19:35;15.45;101.54
61641;HTU21D;62201;49.966;8.342;2023-07-02T04:22:00;15.42;101.68
61641;HTU21D;62201;49.966;8.342;2023-07-02T04:24:25;15.37;101.70
61641;HTU21D;62201;49.966;8.342;2023-07-02T04:26:51;15.34;102.20
61641;HTU21D;62201;49.966;8.342;2023-07-02T04:29:17;15.34;102.26
61641;HTU21D;62201;49.966;8.342;2023-07-02T04:31:42;15.38;101.87
61641;HTU21D;62201;49.966;8.342;2023-07-02T04:34:07;15.34;101.96
61641;HTU21D;62201;49.966;8.342;2023-07-02T04:36:33;15.31;102.26
61641;HTU21D;62201;49.966;8.342;2023-07-02T04:38:58;15.31;102.41
61641;HTU21D;62201;49.966;8.342;2023-07-02T04:41:23;15.33;102.20
61641;HTU21D;62201;49.966;8.342;2023-07-02T04:43:49;15.32;102.69
61641;HTU21D;62201;49.966;8.342;2023-07-02T04:46:14;15.30;102.64
61641;HTU21D;62201;49.966;8.342;2023-07-02T04:48:40;15.36;102.56
61641;HTU21D;62201;49.966;8.342;2023-07-02T04:51:05;15.34;102.82
61641;HTU21D;62201;49.966;8.342;2023-07-02T04:53:31;15.38;102.96
61641;HTU21D;62201;49.966;8.342;2023-07-02T04:55:56;15.45;102.93
61641;HTU21D;62201;49.966;8.342;2023-07-02T04:58:24;15.45;102.63
61641;HTU21D;62201;49.966;8.342;2023-07-02T05:00:50;15.44;103.41
61641;HTU21D;62201;49.966;8.342;2023-07-02T05:03:15;15.44;102.92
61641;HTU21D;62201;49.966;8.342;2023-07-02T05:05:41;15.46;102.80
61641;HTU21D;62201;49.966;8.342;2023-07-02T05:08:09;15.48;102.92
61641;HTU21D;62201;49.966;8.342;2023-07-02T05:10:41;15.48;102.96
61641;HTU21D;62201;49.966;8.342;2023-07-02T05:13:09;15.47;102.73
61641;HTU21D;62201;49.966;8.342;2023-07-02T05:15:37;15.46;102.65
61641;HTU21D;62201;49.966;8.342;2023-07-02T05:18:08;15.44;102.50
61641;HTU21D;62201;49.966;8.342;2023-07-02T05:20:37;15.44;102.14
61641;HTU21D;62201;49.966;8.342;2023-07-02T05:23:11;15.46;102.28
61641;HTU21D;62201;49.966;8.342;2023-07-02T05:25:49;15.51;102.37
61641;HTU21D;62201;49.966;8.342;2023-07-02T05:28:17;15.56;102.30
61641;HTU21D;62201;49.966;8.342;2023-07-02T05:30:45;15.59;102.11
61641;HTU21D;62201;49.966;8.342;2023-07-02T05:33:11;15.66;102.13
61641;HTU21D;62201;49.966;8.342;2023-07-02T05:35:42;15.73;101.19
61641;HTU21D;62201;49.966;8.342;2023-07-02T05:38:13;15.74;101.44
61641;HTU21D;62201;49.966;8.342;2023-07-02T05:40:39;15.96;100.46
61641;HTU21D;62201;49.966;8.342;2023-07-02T05:43:07;16.11;98.88
61641;HTU21D;62201;49.966;8.342;2023-07-02T05:45:36;16.32;98.79
61641;HTU21D;62201;49.966;8.342;2023-07-02T05:48:01;16.67;96.33
61641;HTU21D;62201;49.966;8.342;2023-07-02T05:50:32;16.88;93.22
61641;HTU21D;62201;49.966;8.342;2023-07-02T05:53:06;17.06;92.83
61641;HTU21D;62201;49.966;8.342;2023-07-02T05:55:31;17.35;87.00
61641;HTU21D;62201;49.966;8.342;2023-07-02T05:57:59;17.68;85.03
61641;HTU21D;62201;49.966;8.342;2023-07-02T06:00:30;17.96;82.56
61641;HTU21D;62201;49.966;8.342;2023-07-02T06:02:58;18.33;82.58
61641;HTU21D;62201;49.966;8.342;2023-07-02T06:05:26;18.46;79.36
61641;HTU21D;62201;49.966;8.342;2023-07-02T06:07:56;18.53;78.65
61641;HTU21D;62201;49.966;8.342;2023-07-02T06:10:27;18.43;77.47
61641;HTU21D;62201;49.966;8.342;2023-07-02T06:13:01;18.28;78.34
61641;HTU21D;62201;49.966;8.342;2023-07-02T06:15:30;18.02;78.70
61641;HTU21D;62201;49.966;8.342;2023-07-02T06:18:10;17.90;80.23
61641;HTU21D;62201;49.966;8.342;2023-07-02T06:20:46;17.84;81.30
61641;HTU21D;62201;49.966;8.342;2023-07-02T06:23:11;17.93;81.43
61641;HTU21D;62201;49.966;8.342;2023-07-02T06:25:40;17.85;81.59
61641;HTU21D;62201;49.966;8.342;2023-07-02T06:28:06;17.82;82.42
61641;HTU21D;62201;49.966;8.342;2023-07-02T06:30:31;17.84;82.10
61641;HTU21D;62201;49.966;8.342;2023-07-02T06:33:10;17.95;82.06
61641;HTU21D;62201;49.966;8.342;2023-07-02T06:35:38;18.21;81.07
61641;HTU21D;62201;49.966;8.342;2023-07-02T06:38:06;18.46;80.15
61641;HTU21D;62201;49.966;8.342;2023-07-02T06:40:31;18.55;78.89
61641;HTU21D;62201;49.966;8.342;2023-07-02T06:43:10;18.49;78.47
61641;HTU21D;62201;49.966;8.342;2023-07-02T06:45:38;18.41;78.45
61641;HTU21D;62201;49.966;8.342;2023-07-02T06:48:06;18.25;79.81
61641;HTU21D;62201;49.966;8.342;2023-07-02T06:50:48;18.22;79.50
61641;HTU21D;62201;49.966;8.342;2023-07-02T06:53:16;18.34;79.10
61641;HTU21D;62201;49.966;8.342;2023-07-02T06:55:54;18.59;77.19
61641;HTU21D;62201;49.966;8.342;2023-07-02T06:58:25;18.80;76.28
61641;HTU21D;62201;49.966;8.342;2023-07-02T07:01:00;18.93;74.71
61641;HTU21D;62201;49.966;8.342;2023-07-02T07:03:44;19.15;72.59
61641;HTU21D;62201;49.966;8.342;2023-07-02T07:06:11;19.32;72.77
61641;HTU21D;62201;49.966;8.342;2023-07-02T07:08:38;19.42;71.91
61641;HTU21D;62201;49.966;8.342;2023-07-02T07:11:08;19.56;71.14
61641;HTU21D;62201;49.966;8.342;2023-07-02T07:13:34;19.68;70.71
61641;HTU21D;62201;49.966;8.342;2023-07-02T07:16:03;19.84;69.02
61641;HTU21D;62201;49.966;8.342;2023-07-02T07:18:32;19.89;68.10
61641;HTU21D;62201;49.966;8.342;2023-07-02T07:20:58;19.98;66.36
61641;HTU21D;62201;49.966;8.342;2023-07-02T07:23:23;19.95;66.89
61641;HTU21D;62201;49.966;8.342;2023-07-02T07:25:49;19.92;67.35
61641;HTU21D;62201;49.966;8.342;2023-07-02T07:28:14;20.11;66.29
61641;HTU21D;62201;49.966;8.342;2023-07-02T07:30:44;20.16;65.57
61641;HTU21D;62201;49.966;8.342;2023-07-02T07:33:10;20.13;65.70
61641;HTU21D;62201;49.966;8.342;2023-07-02T07:35:35;20.28;65.52
61641;HTU21D;62201;49.966;8.342;2023-07-02T07:38:00;20.55;64.83
61641;HTU21D;62201;49.966;8.342;2023-07-02T07:40:26;20.73;64.30
61641;HTU21D;62201;49.966;8.342;2023-07-02T07:42:51;20.92;63.06
61641;HTU21D;62201;49.966;8.342;2023-07-02T07:45:16;20.95;62.97
61641;HTU21D;62201;49.966;8.342;2023-07-02T07:47:42;20.85;60.92
61641;HTU21D;62201;49.966;8.342;2023-07-02T07:50:08;20.83;61.50
61641;HTU21D;62201;49.966;8.342;2023-07-02T07:52:39;20.99;60.65
61641;HTU21D;62201;49.966;8.342;2023-07-02T07:55:06;20.96;60.95
61641;HTU21D;62201;49.966;8.342;2023-07-02T07:57:33;21.22;60.72
61641;HTU21D;62201;49.966;8.342;2023-07-02T07:59:58;21.47;60.43
61641;HTU21D;62201;49.966;8.342;2023-07-02T08:02:24;21.58;59.49
61641;HTU21D;62201;49.966;8.342;2023-07-02T08:04:49;21.62;58.81
61641;HTU21D;62201;49.966;8.342;2023-07-02T08:07:15;21.57;58.25
61641;HTU21D;62201;49.966;8.342;2023-07-02T08:09:40;21.69;58.27
61641;HTU21D;62201;49.966;8.342;2023-07-02T08:12:06;21.75;56.58
61641;HTU21D;62201;49.966;8.342;2023-07-02T08:14:32;21.99;55.61
61641;HTU21D;62201;49.966;8.342;2023-07-02T08:16:57;21.97;55.89
61641;HTU21D;62201;49.966;8.342;2023-07-02T08:19:22;21.99;55.43
61641;HTU21D;62201;49.966;8.342;2023-07-02T08:21:48;21.96;55.48
61641;HTU21D;62201;49.966;8.342;2023-07-02T08:24:13;22.18;55.38
61641;HTU21D;62201;49.966;8.342;2023-07-02T08:26:38;22.23;54.01
61641;HTU21D;62201;49.966;8.342;2023-07-02T08:29:04;22.16;54.46
61641;HTU21D;62201;49.966;8.342;2023-07-02T08:31:29;22.28;53.22
61641;HTU21D;62201;49.966;8.342;2023-07-02T08:33:55;22.48;52.69
61641;HTU21D;62201;49.966;8.342;2023-07-02T08:36:20;22.61;51.62
61641;HTU21D;62201;49.966;8.342;2023-07-02T08:38:45;23.18;50.95
61641;HTU21D;62201;49.966;8.342;2023-07-02T08:41:11;23.55;50.36
61641;HTU21D;62201;49.966;8.342;2023-07-02T08:43:37;23.67;49.08
61641;HTU21D;62201;49.966;8.342;2023-07-02T08:46:03;23.29;50.37
61641;HTU21D;62201;49.966;8.342;2023-07-02T08:48:29;22.85;51.75
61641;HTU21D;62201;49.966;8.342;2023-07-02T08:50:55;22.73;51.91
61641;HTU21D;62201;49.966;8.342;2023-07-02T08:53:21;22.65;52.01
61641;HTU21D;62201;49.966;8.342;2023-07-02T08:55:54;22.58;52.32
61641;HTU21D;62201;49.966;8.342;2023-07-02T08:58:20;22.38;52.88
61641;HTU21D;62201;49.966;8.342;2023-07-02T09:01:12;22.28;51.41
61641;HTU21D;62201;49.966;8.342;2023-07-02T09:03:38;22.17;51.06
61641;HTU21D;62201;49.966;8.342;2023-07-02T09:06:09;22.22;51.73
61641;HTU21D;62201;49.966;8.342;2023-07-02T09:08:35;22.40;51.88
61641;HTU21D;62201;49.966;8.342;2023-07-02T09:11:13;22.16;52.62
61641;HTU21D;62201;49.966;8.342;2023-07-02T09:13:47;21.89;54.18
61641;HTU21D;62201;49.966;8.342;2023-07-02T09:16:22;21.95;54.65
61641;HTU21D;62201;49.966;8.342;2023-07-02T09:19:04;21.72;54.05
61641;HTU21D;62201;49.966;8.342;2023-07-02T09:21:42;21.84;52.53
61641;HTU21D;62201;49.966;8.342;2023-07-02T09:24:12;21.97;50.50
61641;HTU21D;62201;49.966;8.342;2023-07-02T09:26:42;22.39;48.41
61641;HTU21D;62201;49.966;8.342;2023-07-02T09:29:07;23.06;47.23
61641;HTU21D;62201;49.966;8.342;2023-07-02T09:31:43;23.09;46.17
61641;HTU21D;62201;49.966;8.342;2023-07-02T09:34:08;22.88;46.22
61641;HTU21D;62201;49.966;8.342;2023-07-02T09:36:34;23.14;45.41
61641;HTU21D;62201;49.966;8.342;2023-07-02T09:39:02;23.77;44.87
61641;HTU21D;62201;49.966;8.342;2023-07-02T09:41:29;24.08;44.41
61641;HTU21D;62201;49.966;8.342;2023-07-02T09:43:55;23.73;45.84
61641;HTU21D;62201;49.966;8.342;2023-07-02T09:46:21;23.15;46.51
61641;HTU21D;62201;49.966;8.342;2023-07-02T09:48:46;22.63;48.64
61641;HTU21D;62201;49.966;8.342;2023-07-02T09:51:12;22.34;49.23
61641;HTU21D;62201;49.966;8.342;2023-07-02T09:53:38;22.07;49.96
61641;HTU21D;62201;49.966;8.342;2023-07-02T09:56:04;22.10;50.56
61641;HTU21D;62201;49.966;8.342;2023-07-02T09:58:29;22.41;49.74
61641;HTU21D;62201;49.966;8.342;2023-07-02T10:00:57;22.31;48.28
61641;HTU21D;62201;49.966;8.342;2023-07-02T10:03:32;22.25;48.15
61641;HTU21D;62201;49.966;8.342;2023-07-02T10:06:06;22.19;48.12
61641;HTU21D;62201;49.966;8.342;2023-07-02T10:08:33;22.31;48.29
61641;HTU21D;62201;49.966;8.342;2023-07-02T10:11:09;23.10;46.58
61641;HTU21D;62201;49.966;8.342;2023-07-02T10:13:34;23.39;46.41
61641;HTU21D;62201;49.966;8.342;2023-07-02T10:16:03;23.21;46.09
61641;HTU21D;62201;49.966;8.342;2023-07-02T10:18:29;22.91;46.67
61641;HTU21D;62201;49.966;8.342;2023-07-02T10:20:54;22.76;47.13
61641;HTU21D;62201;49.966;8.342;2023-07-02T10:23:20;22.50;47.83
61641;HTU21D;62201;49.966;8.342;2023-07-02T10:25:46;22.40;48.01
61641;HTU21D;62201;49.966;8.342;2023-07-02T10:28:18;23.36;46.48
61641;HTU21D;62201;49.966;8.342;2023-07-02T10:30:44;24.03;43.58
61641;HTU21D;62201;49.966;8.342;2023-07-02T10:33:19;24.33;41.74
61641;HTU21D;62201;49.966;8.342;2023-07-02T10:35:47;24.06;42.72
61641;HTU21D;62201;49.966;8.342;2023-07-02T10:38:22;24.64;42.87
61641;HTU21D;62201;49.966;8.342;2023-07-02T10:40:57;24.98;41.34
61641;HTU21D;62201;49.966;8.342;2023-07-02T10:43:30;24.68;42.13
61641;HTU21D;62201;49.966;8.342;2023-07-02T10:45:56;25.51;39.63
61641;HTU21D;62201;49.966;8.342;2023-07-02T10:48:22;24.97;39.32
61641;HTU21D;62201;49.966;8.342;2023-07-02T10:50:47;24.39;40.52
61641;HTU21D;62201;49.966;8.342;2023-07-02T10:53:17;23.76;41.81
61641;HTU21D;62201;49.966;8.342;2023-07-02T10:55:42;23.62;41.49
61641;HTU21D;62201;49.966;8.342;2023-07-02T10:58:09;23.64;40.54
61641;HTU21D;62201;49.966;8.342;2023-07-02T11:00:50;23.18;40.92
61641;HTU21D;62201;49.966;8.342;2023-07-02T11:05:42;23.71;40.25
61641;HTU21D;62201;49.966;8.342;2023-07-02T11:08:08;24.50;38.94
61641;HTU21D;62201;49.966;8.342;2023-07-02T11:10:34;25.02;38.72
61641;HTU21D;62201;49.966;8.342;2023-07-02T11:13:10;25.09;38.44
61641;HTU21D;62201;49.966;8.342;2023-07-02T11:15:36;24.77;39.08
61641;HTU21D;62201;49.966;8.342;2023-07-02T11:18:12;24.16;40.49
61641;HTU21D;62201;49.966;8.342;2023-07-02T11:20:39;23.66;41.20
61641;HTU21D;62201;49.966;8.342;2023-07-02T11:23:05;23.51;42.40
61641;HTU21D;62201;49.966;8.342;2023-07-02T11:25:31;23.35;42.80
61641;HTU21D;62201;49.966;8.342;2023-07-02T11:28:03;24.38;41.30
61641;HTU21D;62201;49.966;8.342;2023-07-02T11:30:29;24.33;41.50
61641;HTU21D;62201;49.966;8.342;2023-07-02T11:32:55;23.88;41.76
61641;HTU21D;62201;49.966;8.342;2023-07-02T11:35:21;23.61;41.98
61641;HTU21D;62201;49.966;8.342;2023-07-02T11:37:47;24.20;41.39
61641;HTU21D;62201;49.966;8.342;2023-07-02T11:40:14;24.83;40.28
61641;HTU21D;62201;49.966;8.342;2023-07-02T11:42:40;25.87;38.47
61641;HTU21D;62201;49.966;8.342;2023-07-02T11:45:06;25.62;37.91
61641;HTU21D;62201;49.966;8.342;2023-07-02T11:47:31;25.28;37.90
61641;HTU21D;62201;49.966;8.342;2023-07-02T11:49:57;24.84;39.91
61641;HTU21D;62201;49.966;8.342;2023-07-02T11:52:25;24.53;40.16
61641;HTU21D;62201;49.966;8.342;2023-07-02T11:54:50;23.98;40.74
61641;HTU21D;62201;49.966;8.342;2023-07-02T11:57:15;23.69;41.10
61641;HTU21D;62201;49.966;8.342;2023-07-02T11:59:42;23.69;41.62
61641;HTU21D;62201;49.966;8.342;2023-07-02T12:02:07;24.54;40.59
61641;HTU21D;62201;49.966;8.342;2023-07-02T12:04:32;24.36;40.55
61641;HTU21D;62201;49.966;8.342;2023-07-02T12:06:58;24.27;40.43
61641;HTU21D;62201;49.966;8.342;2023-07-02T12:09:23;24.47;40.49
61641;HTU21D;62201;49.966;8.342;2023-07-02T12:11:48;24.94;40.39
61641;HTU21D;62201;49.966;8.342;2023-07-02T12:14:14;24.64;39.77
61641;HTU21D;62201;49.966;8.342;2023-07-02T12:16:39;24.55;39.96
61641;HTU21D;62201;49.966;8.342;2023-07-02T12:19:05;24.56;38.97
61641;HTU21D;62201;49.966;8.342;2023-07-02T12:21:30;24.72;38.26
61641;HTU21D;62201;49.966;8.342;2023-07-02T12:23:56;24.48;36.88
61641;HTU21D;62201;49.966;8.342;2023-07-02T12:26:22;24.35;36.94
61641;HTU21D;62201;49.966;8.342;2023-07-02T12:28:47;24.33;37.01
61641;HTU21D;62201;49.966;8.342;2023-07-02T12:31:12;24.83;36.34
61641;HTU21D;62201;49.966;8.342;2023-07-02T12:33:39;25.35;35.89
61641;HTU21D;62201;49.966;8.342;2023-07-02T12:36:05;25.91;34.95
61641;HTU21D;62201;49.966;8.342;2023-07-02T12:38:30;26.23;33.92
61641;HTU21D;62201;49.966;8.342;2023-07-02T12:40:55;25.79;35.35
61641;HTU21D;62201;49.966;8.342;2023-07-02T12:43:21;25.31;36.30
61641;HTU21D;62201;49.966;8.342;2023-07-02T12:45:46;24.77;37.08
61641;HTU21D;62201;49.966;8.342;2023-07-02T12:48:12;24.58;37.41
61641;HTU21D;62201;49.966;8.342;2023-07-02T12:50:37;24.42;37.62
61641;HTU21D;62201;49.966;8.342;2023-07-02T12:53:03;24.44;37.74
61641;HTU21D;62201;49.966;8.342;2023-07-02T12:55:29;24.20;37.59
61641;HTU21D;62201;49.966;8.342;2023-07-02T12:57:55;24.23;37.75
61641;HTU21D;62201;49.966;8.342;2023-07-02T13:00:20;24.09;38.01
61641;HTU21D;62201;49.966;8.342;2023-07-02T13:02:46;24.50;37.01
61641;HTU21D;62201;49.966;8.342;2023-07-02T13:05:12;24.91;36.70
61641;HTU21D;62201;49.966;8.342;2023-07-02T13:07:38;25.37;35.43
61641;HTU21D;62201;49.966;8.342;2023-07-02T13:10:04;25.43;35.26
61641;HTU21D;62201;49.966;8.342;2023-07-02T13:12:29;25.09;36.30
61641;HTU21D;62201;49.966;8.342;2023-07-02T13:14:55;25.37;35.76
61641;HTU21D;62201;49.966;8.342;2023-07-02T13:17:20;25.20;35.80
61641;HTU21D;62201;49.966;8.342;2023-07-02T13:19:45;25.23;35.85
61641;HTU21D;62201;49.966;8.342;2023-07-02T13:22:11;25.15;36.00
61641;HTU21D;62201;49.966;8.342;2023-07-02T13:24:36;24.78;36.09
61641;HTU21D;62201;49.966;8.342;2023-07-02T13:27:04;24.62;36.61
61641;HTU21D;62201;49.966;8.342;2023-07-02T13:29:31;25.01;36.05
61641;HTU21D;62201;49.966;8.342;2023-07-02T13:31:57;25.17;35.53
61641;HTU21D;62201;49.966;8.342;2023-07-02T13:34:22;25.12;35.70
61641;HTU21D;62201;49.966;8.342;2023-07-02T13:36:48;25.42;35.90
61641;HTU21D;62201;49.966;8.342;2023-07-02T13:39:13;25.51;34.99
61641;HTU21D;62201;49.966;8.342;2023-07-02T13:41:38;25.43;34.85
61641;HTU21D;62201;49.966;8.342;2023-07-02T13:44:04;25.08;35.31
61641;HTU21D;62201;49.966;8.342;2023-07-02T13:46:29;25.16;35.28
61641;HTU21D;62201;49.966;8.342;2023-07-02T13:48:54;25.18;35.40
61641;HTU21D;62201;49.966;8.342;2023-07-02T13:51:20;24.88;35.34
61641;HTU21D;62201;49.966;8.342;2023-07-02T13:53:45;24.56;36.11
61641;HTU21D;62201;49.966;8.342;2023-07-02T13:56:11;24.55;36.22
61641;HTU21D;62201;49.966;8.342;2023-07-02T13:59:08;24.95;36.78
61641;HTU21D;62201;49.966;8.342;2023-07-02T14:01:33;26.20;35.43
61641;HTU21D;62201;49.966;8.342;2023-07-02T14:04:00;26.40;34.60
61641;HTU21D;62201;49.966;8.342;2023-07-02T14:06:25;25.97;34.68
61641;HTU21D;62201;49.966;8.342;2023-07-02T14:08:51;25.86;34.43
61641;HTU21D;62201;49.966;8.342;2023-07-02T14:11:16;25.86;34.76
61641;HTU21D;62201;49.966;8.342;2023-07-02T14:13:42;25.84;34.71
61641;HTU21D;62201;49.966;8.342;2023-07-02T14:16:07;26.37;33.09
61641;HTU21D;62201;49.966;8.342;2023-07-02T14:18:32;26.56;32.33
61641;HTU21D;62201;49.966;8.342;2023-07-02T14:20:58;27.01;32.35
61641;HTU21D;62201;49.966;8.342;2023-07-02T14:23:23;27.10;31.86
61641;HTU21D;62201;49.966;8.342;2023-07-02T14:25:48;26.94;32.29
61641;HTU21D;62201;49.966;8.342;2023-07-02T14:28:14;27.44;31.40
61641;HTU21D;62201;49.966;8.342;2023-07-02T14:30:39;27.78;31.23
61641;HTU21D;62201;49.966;8.342;2023-07-02T14:33:07;28.20;30.25
61641;HTU21D;62201;49.966;8.342;2023-07-02T14:35:33;27.40;30.16
61641;HTU21D;62201;49.966;8.342;2023-07-02T14:37:59;26.82;30.46
61641;HTU21D;62201;49.966;8.342;2023-07-02T14:40:25;26.37;31.12
61641;HTU21D;62201;49.966;8.342;2023-07-02T14:42:50;27.37;30.32
61641;HTU21D;62201;49.966;8.342;2023-07-02T14:45:16;28.41;29.79
61641;HTU21D;62201;49.966;8.342;2023-07-02T14:47:41;28.18;30.36
61641;HTU21D;62201;49.966;8.342;2023-07-02T14:50:07;27.38;32.08
61641;HTU21D;62201;49.966;8.342;2023-07-02T14:52:32;26.98;32.89
61641;HTU21D;62201;49.966;8.342;2023-07-02T14:54:58;26.63;32.72
61641;HTU21D;62201;49.966;8.342;2023-07-02T14:57:27;26.24;33.30
61641;HTU21D;62201;49.966;8.342;2023-07-02T14:59:52;26.56;32.87
61641;HTU21D;62201;49.966;8.342;2023-07-02T15:02:18;26.83;32.48
61641;HTU21D;62201;49.966;8.342;2023-07-02T15:04:44;27.59;31.31
61641;HTU21D;62201;49.966;8.342;2023-07-02T15:07:10;27.36;32.26
61641;HTU21D;62201;49.966;8.342;2023-07-02T15:09:35;26.69;31.72
61641;HTU21D;62201;49.966;8.342;2023-07-02T15:12:01;25.94;32.31
61641;HTU21D;62201;49.966;8.342;2023-07-02T15:14:26;25.59;32.93